Time;durP1;ratioP1;P1;durP2;ratioP2;P2;SDS_P1;SDS_P2;PMS_P1;PMS_P2;Temp;Humidity;BMP_temperature;BMP_pressure;BME280_temperature;BME280_humidity;BME280_pressure;Samples;Min_cycle;Max_cycle;Signal;HPM_P1;HPM_P2
2021/07/03 00:01:28;;;;;;;10.18;4.15;;;16.80;99.90;;;;;;5085872;28;20566;-59
2021/07/03 00:03:54;;;;;;;6.22;3.85;;;16.80;99.90;;;;;;5067725;28;20104;-59
2021/07/03 00:06:20;;;;;;;6.55;3.97;;;16.80;99.90;;;;;;5084565;28;20031;-60
2021/07/03 00:08:46;;;;;;;7.10;3.92;;;16.80;99.90;;;;;;5087735;28;20480;-60
2021/07/03 00:11:12;;;;;;;6.95;4.03;;;16.80;99.90;;;;;;5086184;28;20597;-60
2021/07/03 00:13:39;;;;;;;6.85;4.88;;;16.70;99.90;;;;;;5086158;28;20032;-59
2021/07/03 00:16:05;;;;;;;7.00;4.40;;;16.80;99.90;;;;;;5085588;28;20136;-60
2021/07/03 00:18:31;;;;;;;7.75;4.25;;;16.70;99.90;;;;;;5084051;28;20585;-59
2021/07/03 00:20:57;;;;;;;7.63;4.35;;;16.70;99.90;;;;;;5085845;28;20104;-59
2021/07/03 00:23:23;;;;;;;6.93;4.20;;;16.70;99.90;;;;;;5084074;28;20028;-59
2021/07/03 00:25:49;;;;;;;8.30;4.85;;;16.70;99.90;;;;;;5085328;28;20142;-61
2021/07/03 00:28:15;;;;;;;7.05;4.28;;;16.60;99.90;;;;;;5087123;28;20028;-59
2021/07/03 00:30:41;;;;;;;8.90;4.38;;;16.50;99.90;;;;;;5083688;28;20386;-60
2021/07/03 00:33:07;;;;;;;6.57;3.80;;;16.50;99.90;;;;;;5086850;28;20044;-60
2021/07/03 00:35:33;;;;;;;5.80;4.10;;;16.60;99.90;;;;;;5065706;28;20035;-60
2021/07/03 00:37:58;;;;;;;7.10;3.90;;;16.60;99.90;;;;;;5085973;28;20402;-60
2021/07/03 00:40:24;;;;;;;8.45;4.68;;;16.60;99.90;;;;;;5085535;28;20031;-60
2021/07/03 00:42:50;;;;;;;6.95;4.43;;;16.50;99.90;;;;;;5085987;28;20403;-60
2021/07/03 00:45:16;;;;;;;6.78;4.15;;;16.50;99.90;;;;;;5084226;28;20442;-60
2021/07/03 00:47:42;;;;;;;6.38;3.95;;;16.50;99.90;;;;;;5086955;28;20135;-60
2021/07/03 00:50:09;;;;;;;7.60;3.65;;;16.50;99.90;;;;;;5084820;28;20019;-60
2021/07/03 00:52:37;;;;;;;5.45;3.90;;;16.40;99.90;;;;;;5085552;28;20381;-60
2021/07/03 00:55:04;;;;;;;8.48;4.57;;;16.50;99.90;;;;;;5084374;28;20136;-60
2021/07/03 00:57:31;;;;;;;8.68;4.53;;;16.60;99.90;;;;;;5085188;28;20031;-60
2021/07/03 00:59:58;;;;;;;6.82;4.40;;;16.50;99.90;;;;;;5085005;28;20034;-60
2021/07/03 01:02:24;;;;;;;11.10;4.55;;;16.60;99.90;;;;;;5084842;28;20038;-60
2021/07/03 01:04:50;;;;;;;6.75;4.63;;;16.50;99.90;;;;;;5085275;28;20031;-60
2021/07/03 01:07:16;;;;;;;9.50;5.03;;;16.50;99.90;;;;;;5086271;28;20020;-60
2021/07/03 01:09:42;;;;;;;7.45;4.40;;;16.50;99.90;;;;;;5086100;28;20080;-60
2021/07/03 01:12:09;;;;;;;11.13;5.28;;;16.50;99.90;;;;;;5084089;28;20050;-59
2021/07/03 01:14:47;;;;;;;6.75;5.05;;;16.50;99.90;;;;;;5086586;28;20028;-60
2021/07/03 01:17:15;;;;;;;7.60;4.82;;;16.50;99.90;;;;;;5084697;28;20475;-60
2021/07/03 01:19:43;;;;;;;7.07;5.00;;;16.40;99.90;;;;;;5085075;28;20129;-60
2021/07/03 01:22:11;;;;;;;6.40;4.38;;;16.40;99.90;;;;;;5084066;28;20024;-60
2021/07/03 01:24:38;;;;;;;6.90;4.53;;;16.40;99.90;;;;;;5085532;28;20052;-60
2021/07/03 01:27:05;;;;;;;9.13;5.28;;;16.40;99.90;;;;;;5084695;28;20552;-59
2021/07/03 01:29:32;;;;;;;8.18;4.57;;;16.40;99.90;;;;;;5084937;28;20381;-59
2021/07/03 01:31:59;;;;;;;8.10;4.97;;;16.50;99.90;;;;;;5082107;28;20343;-60
2021/07/03 01:34:27;;;;;;;10.02;4.93;;;16.50;99.90;;;;;;5085020;28;20527;-60
2021/07/03 01:36:54;;;;;;;8.63;4.93;;;16.40;99.90;;;;;;5085126;28;20052;-60
2021/07/03 01:39:21;;;;;;;6.57;3.92;;;16.30;99.90;;;;;;5085048;28;20024;-59
2021/07/03 01:41:47;;;;;;;6.28;3.80;;;16.40;99.90;;;;;;5083056;28;20514;-59
2021/07/03 01:44:19;;;;;;;5.03;3.25;;;16.40;99.90;;;;;;5084806;28;20024;-61
2021/07/03 01:46:45;;;;;;;4.15;2.95;;;16.30;99.90;;;;;;5085226;28;20453;-61
2021/07/03 01:49:11;;;;;;;5.22;3.20;;;16.40;99.90;;;;;;5083534;28;20359;-61
2021/07/03 01:51:38;;;;;;;6.72;3.53;;;16.30;99.90;;;;;;5084994;28;20516;-61
2021/07/03 01:54:04;;;;;;;4.25;3.08;;;16.30;99.90;;;;;;5086843;28;20016;-61
2021/07/03 01:56:30;;;;;;;5.78;3.50;;;16.40;99.90;;;;;;5089284;28;20028;-61
2021/07/03 01:58:56;;;;;;;3.55;3.00;;;16.40;99.90;;;;;;5089642;28;20076;-61
2021/07/03 02:01:22;;;;;;;5.13;3.00;;;16.40;99.90;;;;;;5089140;28;20042;-61
2021/07/03 02:03:47;;;;;;;4.13;2.60;;;16.40;99.90;;;;;;5087680;28;20406;-59
2021/07/03 02:06:13;;;;;;;5.18;2.95;;;16.40;99.90;;;;;;5089345;28;20040;-58
2021/07/03 02:08:39;;;;;;;5.30;3.20;;;16.40;99.90;;;;;;5089425;28;20391;-58
2021/07/03 02:11:05;;;;;;;4.25;2.88;;;16.40;99.90;;;;;;5087500;28;20039;-59
2021/07/03 02:13:31;;;;;;;4.38;3.03;;;16.40;99.90;;;;;;5071340;28;20031;-59
2021/07/03 02:15:57;;;;;;;5.40;3.28;;;16.40;99.90;;;;;;5088806;28;20115;-59
2021/07/03 02:18:24;;;;;;;4.57;3.00;;;16.40;99.90;;;;;;5089204;28;20038;-59
2021/07/03 02:20:50;;;;;;;6.00;3.58;;;16.40;99.90;;;;;;5088482;28;20127;-59
2021/07/03 02:23:17;;;;;;;4.70;3.33;;;16.50;99.90;;;;;;5084402;28;20433;-58
2021/07/03 02:25:46;;;;;;;4.15;2.85;;;16.50;99.90;;;;;;5088460;28;20194;-59
2021/07/03 02:28:15;;;;;;;4.10;2.75;;;16.50;99.90;;;;;;5070286;28;20473;-59
2021/07/03 02:30:41;;;;;;;6.88;3.60;;;16.50;99.90;;;;;;5088462;28;20148;-59
2021/07/03 02:33:07;;;;;;;7.00;3.28;;;16.50;99.90;;;;;;5087978;28;20043;-58
2021/07/03 02:35:33;;;;;;;4.30;3.05;;;16.60;99.90;;;;;;5088156;28;20036;-59
2021/07/03 02:37:59;;;;;;;4.32;3.40;;;16.60;99.90;;;;;;5088544;28;20034;-58
2021/07/03 02:40:24;;;;;;;5.38;3.10;;;16.60;99.90;;;;;;5088554;28;20020;-58
2021/07/03 02:42:50;;;;;;;8.52;3.10;;;16.60;99.90;;;;;;5088000;28;20558;-59
2021/07/03 02:45:18;;;;;;;3.92;3.03;;;16.60;99.90;;;;;;5087633;28;20499;-59
2021/07/03 02:47:44;;;;;;;3.85;2.60;;;16.70;99.90;;;;;;5087776;28;20112;-58
2021/07/03 02:50:13;;;;;;;5.25;2.83;;;16.70;99.90;;;;;;5083644;28;20031;-59
2021/07/03 02:52:39;;;;;;;2.80;2.50;;;16.70;99.90;;;;;;5085042;28;20031;-58
2021/07/03 02:55:06;;;;;;;4.38;2.80;;;16.70;99.90;;;;;;5088849;28;20031;-58
2021/07/03 02:57:32;;;;;;;3.80;3.00;;;16.70;99.90;;;;;;5087961;28;20032;-59
2021/07/03 02:59:58;;;;;;;5.75;3.15;;;16.70;99.90;;;;;;5088274;28;20050;-59
2021/07/03 03:02:24;;;;;;;5.20;2.80;;;16.70;99.90;;;;;;5088058;28;20382;-58
2021/07/03 03:04:49;;;;;;;4.80;3.00;;;16.70;99.90;;;;;;5088674;28;20043;-61
2021/07/03 03:07:15;;;;;;;4.50;2.88;;;16.70;99.90;;;;;;5086428;28;20030;-58
2021/07/03 03:09:41;;;;;;;4.95;2.72;;;16.60;99.90;;;;;;5089459;28;20020;-58
2021/07/03 03:12:07;;;;;;;3.67;2.67;;;16.60;99.90;;;;;;5082918;28;20395;-58
2021/07/03 03:14:33;;;;;;;5.03;2.88;;;16.70;99.90;;;;;;5089121;28;20032;-58
2021/07/03 03:16:59;;;;;;;4.45;2.83;;;16.60;99.90;;;;;;5087058;28;20100;-58
2021/07/03 03:19:25;;;;;;;3.97;2.90;;;16.50;99.90;;;;;;5087504;28;20202;-59
2021/07/03 03:21:51;;;;;;;3.15;2.72;;;16.60;99.90;;;;;;5088530;28;20040;-59
2021/07/03 03:24:17;;;;;;;6.95;3.25;;;16.60;99.90;;;;;;5085043;28;20561;-59
2021/07/03 03:26:43;;;;;;;4.72;2.85;;;16.60;99.90;;;;;;5086850;28;20353;-59
2021/07/03 03:29:09;;;;;;;6.15;3.85;;;16.60;99.90;;;;;;5087528;28;20036;-58
2021/07/03 03:31:35;;;;;;;6.55;3.85;;;16.60;99.90;;;;;;5081861;28;20047;-59
2021/07/03 03:34:02;;;;;;;8.38;4.10;;;16.70;99.90;;;;;;5086292;28;20059;-60
2021/07/03 03:36:28;;;;;;;6.88;4.25;;;16.70;99.90;;;;;;5084685;28;20646;-59
2021/07/03 03:38:54;;;;;;;5.10;3.75;;;16.60;99.90;;;;;;5086019;28;20030;-59
2021/07/03 03:41:20;;;;;;;6.43;3.80;;;16.60;99.90;;;;;;5084851;28;20024;-60
2021/07/03 03:43:46;;;;;;;7.65;3.88;;;16.60;99.90;;;;;;5083959;28;20166;-59
2021/07/03 03:46:12;;;;;;;6.43;3.90;;;16.70;99.90;;;;;;5084635;28;20485;-60
2021/07/03 03:48:38;;;;;;;7.00;4.53;;;16.60;99.90;;;;;;5066342;28;20032;-60
2021/07/03 03:51:04;;;;;;;8.85;4.20;;;16.60;99.90;;;;;;5082901;28;20044;-59
2021/07/03 03:53:30;;;;;;;7.82;4.55;;;16.60;99.90;;;;;;5083499;28;20144;-60
2021/07/03 03:55:56;;;;;;;8.77;4.30;;;16.60;99.90;;;;;;5084510;28;20482;-60
2021/07/03 03:58:22;;;;;;;7.40;4.40;;;16.60;99.90;;;;;;5084746;28;20061;-59
2021/07/03 04:00:47;;;;;;;7.88;4.15;;;16.70;99.90;;;;;;5067219;28;20027;-59
2021/07/03 04:03:13;;;;;;;9.05;4.63;;;16.80;99.90;;;;;;5084672;28;20028;-59
2021/07/03 04:05:39;;;;;;;6.82;3.97;;;16.80;99.90;;;;;;5085873;28;20066;-60
2021/07/03 04:08:05;;;;;;;6.75;4.68;;;16.80;99.90;;;;;;5064695;28;20370;-59
2021/07/03 04:10:31;;;;;;;5.97;4.00;;;16.80;99.90;;;;;;5085581;28;20478;-59
2021/07/03 04:12:57;;;;;;;7.05;4.38;;;16.80;99.90;;;;;;5081083;28;20127;-59
2021/07/03 04:15:23;;;;;;;8.30;5.32;;;16.90;99.90;;;;;;5084372;28;20026;-60
2021/07/03 04:17:49;;;;;;;9.45;4.60;;;16.90;99.90;;;;;;5082624;28;20121;-59
2021/07/03 04:20:15;;;;;;;9.07;4.60;;;16.80;99.90;;;;;;5065046;28;20093;-59
2021/07/03 04:22:41;;;;;;;5.93;3.85;;;16.90;99.90;;;;;;5085820;28;20035;-60
2021/07/03 04:25:11;;;;;;;7.95;4.75;;;16.80;99.90;;;;;;5083735;28;20087;-59
2021/07/03 04:27:38;;;;;;;8.63;4.57;;;16.90;99.90;;;;;;5067987;28;20038;-60
2021/07/03 04:30:06;;;;;;;8.95;4.15;;;16.90;99.90;;;;;;5082160;28;20036;-60
2021/07/03 04:32:32;;;;;;;5.20;3.35;;;16.90;99.90;;;;;;5083886;28;20027;-60
2021/07/03 04:34:58;;;;;;;6.68;4.60;;;16.90;99.90;;;;;;5083587;28;20669;-59
2021/07/03 04:37:23;;;;;;;8.02;5.35;;;17.00;99.90;;;;;;5078763;28;20444;-59
2021/07/03 04:39:49;;;;;;;7.38;5.07;;;17.10;99.90;;;;;;5081315;28;20028;-59
2021/07/03 04:42:15;;;;;;;9.75;4.75;;;17.10;99.90;;;;;;5085086;28;20035;-59
2021/07/03 04:44:41;;;;;;;7.90;4.70;;;17.20;99.90;;;;;;5085234;28;20377;-59
2021/07/03 04:47:07;;;;;;;6.18;4.60;;;17.20;99.90;;;;;;5067839;28;20138;-59
2021/07/03 04:49:33;;;;;;;7.72;4.35;;;17.30;99.90;;;;;;5081410;28;20070;-59
2021/07/03 04:52:00;;;;;;;5.82;4.35;;;17.20;99.90;;;;;;5083727;28;20043;-60
2021/07/03 04:54:26;;;;;;;6.60;4.18;;;17.20;99.90;;;;;;5078356;28;20030;-59
2021/07/03 04:57:06;;;;;;;6.35;4.22;;;17.20;99.90;;;;;;5079941;28;20028;-59
2021/07/03 04:59:35;;;;;;;8.02;5.10;;;17.20;99.90;;;;;;5084891;28;20020;-59
2021/07/03 05:02:01;;;;;;;8.45;5.18;;;17.30;99.90;;;;;;5083568;28;20035;-59
2021/07/03 05:04:27;;;;;;;8.73;5.40;;;17.30;99.90;;;;;;5083077;28;20047;-59
2021/07/03 05:06:53;;;;;;;7.90;4.80;;;17.40;99.90;;;;;;5085723;28;20050;-59
2021/07/03 05:09:18;;;;;;;9.23;5.35;;;17.30;99.90;;;;;;5078771;28;22142;-60
2021/07/03 05:11:44;;;;;;;8.95;5.10;;;17.30;99.90;;;;;;5082893;28;20043;-59
2021/07/03 05:14:10;;;;;;;10.43;5.15;;;17.40;99.90;;;;;;5085142;28;20435;-60
2021/07/03 05:16:36;;;;;;;8.73;5.13;;;17.40;99.90;;;;;;5084019;28;20031;-59
2021/07/03 05:19:01;;;;;;;8.32;5.10;;;17.50;99.90;;;;;;5083647;28;20140;-59
2021/07/03 05:21:27;;;;;;;10.75;5.50;;;17.60;99.90;;;;;;5083003;28;20412;-59
2021/07/03 05:23:53;;;;;;;7.95;5.25;;;17.70;99.90;;;;;;5081574;28;20081;-59
2021/07/03 05:26:19;;;;;;;10.32;5.80;;;17.70;99.90;;;;;;5061621;28;20052;-60
2021/07/03 05:28:44;;;;;;;11.23;5.90;;;17.70;99.90;;;;;;5084425;28;20116;-59
2021/07/03 05:31:10;;;;;;;10.90;6.10;;;17.70;99.90;;;;;;5081190;28;20043;-60
2021/07/03 05:33:36;;;;;;;11.73;6.28;;;17.80;99.90;;;;;;5082080;28;20667;-60
2021/07/03 05:36:02;;;;;;;10.30;6.00;;;17.80;99.90;;;;;;5082436;28;20028;-59
2021/07/03 05:38:29;;;;;;;14.65;6.32;;;17.80;99.90;;;;;;5083610;28;20115;-59
2021/07/03 05:41:00;;;;;;;10.15;6.22;;;17.80;99.90;;;;;;5081406;28;20032;-60
2021/07/03 05:43:27;;;;;;;11.07;6.18;;;17.90;99.90;;;;;;5078561;28;20669;-59
2021/07/03 05:45:53;;;;;;;10.95;5.95;;;17.80;99.90;;;;;;5075761;28;20356;-59
2021/07/03 05:48:19;;;;;;;9.88;6.50;;;17.90;99.90;;;;;;5079402;28;20075;-57
2021/07/03 05:50:44;;;;;;;10.05;6.72;;;17.80;99.90;;;;;;5079552;28;20035;-60
2021/07/03 05:53:10;;;;;;;12.18;6.32;;;17.80;99.90;;;;;;5081596;28;20038;-59
2021/07/03 05:55:36;;;;;;;11.68;6.25;;;17.80;99.90;;;;;;5082614;28;20317;-60
2021/07/03 05:58:02;;;;;;;11.55;6.43;;;17.70;99.90;;;;;;5082415;28;20399;-59
2021/07/03 06:00:28;;;;;;;9.77;5.75;;;17.80;99.90;;;;;;5083328;28;20043;-60
2021/07/03 06:02:53;;;;;;;10.27;6.20;;;17.80;99.90;;;;;;5081306;28;20413;-59
2021/07/03 06:05:19;;;;;;;9.77;5.65;;;17.90;99.90;;;;;;5068375;28;20027;-60
2021/07/03 06:07:45;;;;;;;11.00;6.03;;;17.90;99.90;;;;;;5083401;28;20468;-60
2021/07/03 06:10:12;;;;;;;13.25;6.63;;;17.90;99.90;;;;;;5081601;28;20051;-60
2021/07/03 06:12:38;;;;;;;9.98;5.95;;;17.90;99.90;;;;;;5080499;28;20044;-60
2021/07/03 06:15:05;;;;;;;9.63;5.75;;;17.90;99.90;;;;;;5084750;28;20402;-60
2021/07/03 06:17:31;;;;;;;12.85;5.82;;;17.90;99.90;;;;;;5084859;28;20043;-60
2021/07/03 06:19:57;;;;;;;9.95;5.07;;;17.90;99.90;;;;;;5085702;28;20126;-59
2021/07/03 06:22:23;;;;;;;12.65;6.60;;;17.90;99.90;;;;;;5082348;28;21533;-59
2021/07/03 06:24:49;;;;;;;10.23;6.20;;;17.90;99.90;;;;;;5086226;28;20054;-60
2021/07/03 06:27:15;;;;;;;12.38;6.10;;;17.90;99.90;;;;;;5082632;28;20024;-59
2021/07/03 06:29:41;;;;;;;12.35;7.20;;;17.90;99.90;;;;;;5084563;28;20163;-59
2021/07/03 06:32:08;;;;;;;10.85;6.30;;;18.00;99.90;;;;;;5078192;28;20456;-60
2021/07/03 06:34:34;;;;;;;16.85;6.82;;;17.90;99.90;;;;;;5080165;28;20429;-60
2021/07/03 06:37:00;;;;;;;13.65;7.15;;;17.90;99.90;;;;;;5060552;28;20040;-60
2021/07/03 06:39:26;;;;;;;10.05;6.32;;;18.00;99.90;;;;;;5085466;28;20034;-58
2021/07/03 06:41:52;;;;;;;10.68;6.30;;;18.00;99.90;;;;;;5080262;28;20481;-60
2021/07/03 06:44:18;;;;;;;10.98;7.05;;;17.90;99.90;;;;;;5086932;28;20495;-60
2021/07/03 06:46:46;;;;;;;10.27;6.05;;;17.90;99.90;;;;;;5065567;28;20082;-60
2021/07/03 06:49:13;;;;;;;11.30;6.70;;;17.90;99.90;;;;;;5067824;28;20152;-59
2021/07/03 06:51:38;;;;;;;11.88;7.45;;;17.80;99.90;;;;;;5084147;28;20047;-60
2021/07/03 06:54:05;;;;;;;12.68;7.07;;;17.80;99.90;;;;;;5077708;28;20027;-60
2021/07/03 06:56:31;;;;;;;12.75;7.28;;;17.80;99.90;;;;;;5083924;28;20125;-60
2021/07/03 06:58:57;;;;;;;10.40;6.53;;;17.80;99.90;;;;;;5081388;28;20437;-60
2021/07/03 07:01:23;;;;;;;13.48;6.43;;;17.80;99.90;;;;;;5065962;28;20305;-60
2021/07/03 07:03:48;;;;;;;12.18;6.90;;;17.80;99.90;;;;;;5081665;28;20474;-60
2021/07/03 07:06:14;;;;;;;13.00;6.35;;;17.80;99.90;;;;;;5080104;28;20024;-58
2021/07/03 07:08:40;;;;;;;12.07;6.18;;;17.80;99.90;;;;;;5075391;28;20030;-60
2021/07/03 07:11:06;;;;;;;14.55;6.32;;;17.80;99.90;;;;;;5087324;28;20577;-60
2021/07/03 07:13:32;;;;;;;10.05;5.65;;;17.70;99.90;;;;;;5085855;28;20339;-59
2021/07/03 07:15:58;;;;;;;9.45;5.50;;;17.70;99.90;;;;;;5086653;28;20213;-58
2021/07/03 07:18:23;;;;;;;9.48;5.45;;;17.70;99.90;;;;;;5083110;28;20043;-58
2021/07/03 07:20:49;;;;;;;10.10;6.70;;;17.80;99.90;;;;;;5080983;28;20032;-58
2021/07/03 07:23:15;;;;;;;11.23;5.90;;;17.80;99.90;;;;;;5083003;28;20035;-61
2021/07/03 07:25:42;;;;;;;9.27;6.18;;;17.80;99.90;;;;;;5086339;28;20524;-58
2021/07/03 07:28:08;;;;;;;9.43;6.50;;;17.80;99.90;;;;;;5084457;28;20524;-58
2021/07/03 07:30:34;;;;;;;10.23;6.32;;;17.80;99.90;;;;;;5080459;28;20028;-58
2021/07/03 07:33:00;;;;;;;12.25;6.05;;;17.80;99.90;;;;;;5082418;28;20042;-58
2021/07/03 07:35:26;;;;;;;9.98;6.68;;;17.80;99.90;;;;;;5083503;28;20028;-61
2021/07/03 07:37:52;;;;;;;12.50;7.18;;;17.80;99.90;;;;;;5086192;28;20034;-61
2021/07/03 07:40:19;;;;;;;12.80;7.50;;;17.70;99.90;;;;;;5086040;28;20576;-58
2021/07/03 07:42:45;;;;;;;12.35;7.57;;;17.70;99.90;;;;;;5085170;28;20111;-60
2021/07/03 07:45:12;;;;;;;13.45;7.38;;;17.70;99.90;;;;;;5086800;28;20436;-61
2021/07/03 07:47:38;;;;;;;13.65;7.63;;;17.70;99.90;;;;;;5083872;28;20036;-58
2021/07/03 07:50:06;;;;;;;14.32;7.15;;;17.70;99.90;;;;;;5082582;28;20833;-58
2021/07/03 07:52:33;;;;;;;17.63;8.50;;;17.80;99.90;;;;;;5075518;28;20054;-61
2021/07/03 07:54:59;;;;;;;14.38;8.93;;;17.70;99.90;;;;;;5084110;28;20077;-61
2021/07/03 07:57:24;;;;;;;17.05;10.07;;;17.70;99.90;;;;;;5082497;28;20094;-61
2021/07/03 07:59:50;;;;;;;17.02;9.25;;;17.70;99.90;;;;;;5080639;28;20055;-60
2021/07/03 08:02:16;;;;;;;17.10;9.07;;;17.70;99.90;;;;;;5084063;28;20041;-60
2021/07/03 08:04:42;;;;;;;20.38;9.73;;;17.70;99.90;;;;;;5080167;28;20026;-58
2021/07/03 08:07:08;;;;;;;17.85;9.05;;;17.90;99.90;;;;;;5081443;28;20032;-58
2021/07/03 08:09:35;;;;;;;14.32;9.55;;;17.90;99.90;;;;;;5083905;28;20019;-58
2021/07/03 08:12:00;;;;;;;17.48;9.05;;;17.90;99.90;;;;;;5080561;28;20044;-58
2021/07/03 08:14:26;;;;;;;13.13;7.95;;;17.90;99.90;;;;;;5083930;28;20051;-57
2021/07/03 08:16:52;;;;;;;16.90;9.00;;;18.00;99.90;;;;;;5084585;28;20768;-58
2021/07/03 08:19:18;;;;;;;15.15;8.85;;;18.20;99.90;;;;;;5076550;28;20034;-58
2021/07/03 08:21:44;;;;;;;13.80;8.88;;;18.20;99.90;;;;;;5080162;28;20422;-58
2021/07/03 08:24:11;;;;;;;14.05;9.48;;;18.40;99.90;;;;;;5081005;28;20074;-58
2021/07/03 08:26:36;;;;;;;13.25;8.15;;;18.60;99.90;;;;;;5077821;28;20164;-59
2021/07/03 08:29:03;;;;;;;15.45;8.60;;;19.00;99.90;;;;;;5080262;28;20069;-69
2021/07/03 08:31:30;;;;;;;14.88;8.82;;;19.20;99.90;;;;;;5081535;28;20051;-69
2021/07/03 08:33:56;;;;;;;21.90;8.38;;;19.50;99.90;;;;;;5080759;28;20024;-72
2021/07/03 08:36:22;;;;;;;13.10;7.55;;;19.50;99.90;;;;;;5086208;28;20490;-66
2021/07/03 08:38:48;;;;;;;16.58;8.00;;;19.70;99.90;;;;;;5085547;28;20131;-66
2021/07/03 08:41:15;;;;;;;12.82;7.47;;;19.80;99.90;;;;;;5085698;28;20477;-66
2021/07/03 08:43:49;;;;;;;15.40;7.68;;;20.00;99.90;;;;;;5086099;28;20068;-66
2021/07/03 08:46:20;;;;;;;15.23;6.90;;;20.20;99.90;;;;;;5086298;28;20032;-66
2021/07/03 08:48:58;;;;;;;13.95;6.60;;;20.30;99.90;;;;;;5084155;28;20027;-66
2021/07/03 08:51:24;;;;;;;14.57;6.90;;;20.40;99.90;;;;;;5085877;28;20130;-66
2021/07/03 08:53:51;;;;;;;11.95;6.50;;;20.40;99.90;;;;;;5085329;28;20028;-66
2021/07/03 08:56:17;;;;;;;14.80;7.05;;;20.50;99.90;;;;;;5087800;28;20454;-66
2021/07/03 08:58:43;;;;;;;11.73;6.95;;;20.50;99.90;;;;;;5084382;28;20023;-66
2021/07/03 09:01:09;;;;;;;9.70;5.97;;;20.50;99.90;;;;;;5064471;28;20082;-66
2021/07/03 09:03:35;;;;;;;13.50;6.43;;;20.40;99.90;;;;;;5085137;28;20032;-66
2021/07/03 09:06:05;;;;;;;10.65;6.32;;;20.40;99.90;;;;;;5087013;28;20463;-66
2021/07/03 09:08:31;;;;;;;12.00;7.22;;;20.40;99.90;;;;;;5084248;28;20047;-66
2021/07/03 09:11:06;;;;;;;14.73;6.95;;;20.50;99.90;;;;;;5067868;28;20032;-66
2021/07/03 09:13:34;;;;;;;10.30;6.05;;;20.50;99.90;;;;;;5085646;28;20070;-66
2021/07/03 09:16:00;;;;;;;10.23;6.00;;;20.70;99.90;;;;;;5085412;28;20418;-66
2021/07/03 09:18:28;;;;;;;9.82;6.00;;;20.90;99.90;;;;;;5085458;28;20539;-66
2021/07/03 09:20:56;;;;;;;12.07;6.65;;;21.20;99.90;;;;;;5085774;28;20588;-66
2021/07/03 09:23:30;;;;;;;11.38;6.28;;;21.40;99.90;;;;;;5084211;28;20426;-66
2021/07/03 09:26:14;;;;;;;12.40;6.38;;;21.50;99.90;;;;;;5086045;28;20044;-66
2021/07/03 09:28:44;;;;;;;10.10;6.10;;;21.80;99.90;;;;;;5085691;28;20039;-66
2021/07/03 09:31:13;;;;;;;10.85;7.07;;;21.90;99.90;;;;;;5085133;28;20082;-66
2021/07/03 09:33:48;;;;;;;12.18;6.90;;;22.00;99.90;;;;;;5081981;28;20471;-66
2021/07/03 09:36:22;;;;;;;11.48;6.78;;;22.10;99.90;;;;;;5082993;28;20505;-66
2021/07/03 09:38:50;;;;;;;10.32;6.20;;;22.30;99.90;;;;;;5086598;28;20034;-66
2021/07/03 09:41:20;;;;;;;10.90;6.20;;;22.40;99.90;;;;;;5085586;28;20023;-66
2021/07/03 09:43:49;;;;;;;10.35;5.85;;;22.70;99.90;;;;;;5084604;28;20510;-67
2021/07/03 09:46:21;;;;;;;9.45;5.93;;;23.20;99.90;;;;;;5085063;28;20032;-67
2021/07/03 09:48:58;;;;;;;14.35;6.95;;;23.60;99.90;;;;;;5085253;28;20047;-66
2021/07/03 09:51:29;;;;;;;12.10;6.68;;;23.60;99.90;;;;;;5083870;28;20043;-66
2021/07/03 09:53:56;;;;;;;10.10;6.07;;;23.90;99.90;;;;;;5086730;28;20028;-66
2021/07/03 09:56:22;;;;;;;11.63;6.68;;;23.90;99.90;;;;;;5085491;28;20031;-66
2021/07/03 09:58:48;;;;;;;15.57;6.45;;;23.90;99.90;;;;;;5086468;28;20613;-66
2021/07/03 10:01:14;;;;;;;10.88;6.47;;;23.90;99.90;;;;;;5085467;28;20446;-67
2021/07/03 10:03:40;;;;;;;14.15;7.28;;;23.70;99.90;;;;;;5085427;28;20039;-66
2021/07/03 10:06:12;;;;;;;14.38;5.45;;;23.60;99.90;;;;;;5083266;28;20510;-66
2021/07/03 10:08:43;;;;;;;11.75;6.50;;;23.60;99.90;;;;;;5082902;28;20027;-67
2021/07/03 10:11:11;;;;;;;10.63;6.43;;;23.80;99.90;;;;;;5084989;28;20451;-69
2021/07/03 10:13:40;;;;;;;8.57;5.35;;;23.80;99.90;;;;;;5085503;28;20027;-68
2021/07/03 10:16:08;;;;;;;14.98;6.50;;;23.80;99.90;;;;;;5070843;28;20425;-69
2021/07/03 10:18:36;;;;;;;7.10;5.27;;;23.60;99.90;;;;;;5087975;28;20044;-67
2021/07/03 10:21:16;;;;;;;12.68;6.30;;;23.30;99.90;;;;;;5085295;28;20815;-66
2021/07/03 10:23:44;;;;;;;10.80;6.38;;;23.10;99.90;;;;;;5085387;28;20519;-66
2021/07/03 10:26:10;;;;;;;8.95;6.40;;;23.10;99.90;;;;;;5080898;28;20824;-66
2021/07/03 10:28:39;;;;;;;10.45;6.38;;;22.90;99.90;;;;;;5084896;28;20016;-66
2021/07/03 10:31:12;;;;;;;9.43;6.15;;;22.50;99.90;;;;;;5087110;28;20031;-66
2021/07/03 10:33:51;;;;;;;10.45;5.78;;;22.40;99.90;;;;;;5086391;28;20031;-66
2021/07/03 10:36:31;;;;;;;8.85;5.47;;;22.30;99.90;;;;;;5088560;28;20024;-66
2021/07/03 10:38:59;;;;;;;11.65;6.05;;;22.30;99.90;;;;;;5083414;28;20054;-66
2021/07/03 10:41:30;;;;;;;9.43;5.13;;;22.10;99.90;;;;;;5082965;28;20028;-66
2021/07/03 10:44:09;;;;;;;8.85;6.50;;;22.00;99.90;;;;;;5081279;28;20439;-66
2021/07/03 10:46:42;;;;;;;11.77;7.23;;;22.10;99.90;;;;;;5084274;28;20132;-66
2021/07/03 10:49:12;;;;;;;10.90;6.97;;;22.00;99.90;;;;;;5084833;28;20043;-66
2021/07/03 10:51:41;;;;;;;;;;;21.80;99.90;;;;;;5084337;28;20343;-66
2021/07/03 10:54:24;;;;;;;11.57;6.95;;;21.70;99.90;;;;;;5084339;28;20037;-66
2021/07/03 10:57:00;;;;;;;12.00;7.47;;;21.70;99.90;;;;;;5082920;28;20027;-66
2021/07/03 10:59:28;;;;;;;14.85;6.88;;;21.70;99.90;;;;;;5084328;28;20028;-66
2021/07/03 11:02:12;;;;;;;10.52;6.07;;;21.60;99.90;;;;;;5080184;28;21255;-66
2021/07/03 11:04:49;;;;;;;10.35;6.70;;;21.70;99.90;;;;;;5087650;28;20058;-66
2021/07/03 11:07:20;;;;;;;12.82;7.55;;;21.70;99.90;;;;;;5085394;28;20059;-66
2021/07/03 11:09:48;;;;;;;9.60;6.32;;;21.60;99.90;;;;;;5088364;28;20035;-66
2021/07/03 11:12:23;;;;;;;11.35;6.45;;;21.50;99.90;;;;;;5088994;28;20046;-66
2021/07/03 11:14:55;;;;;;;11.20;6.53;;;21.50;99.90;;;;;;5088166;28;20291;-66
2021/07/03 11:17:24;;;;;;;12.00;6.60;;;21.60;99.90;;;;;;5082610;28;20019;-66
2021/07/03 11:19:52;;;;;;;11.47;7.40;;;21.50;99.90;;;;;;5082656;28;20032;-66
2021/07/03 11:22:23;;;;;;;14.20;7.57;;;21.60;99.90;;;;;;5068359;28;20032;-66
2021/07/03 11:24:53;;;;;;;12.38;7.38;;;21.60;99.90;;;;;;5084517;28;20601;-66
2021/07/03 11:27:29;;;;;;;12.35;7.30;;;21.60;99.90;;;;;;5085286;28;20513;-66
2021/07/03 11:29:56;;;;;;;13.85;7.28;;;21.60;99.90;;;;;;5087825;28;20032;-66
2021/07/03 11:32:22;;;;;;;12.55;7.30;;;21.60;99.90;;;;;;5088084;28;20036;-66
2021/07/03 11:34:59;;;;;;;16.02;7.88;;;21.60;99.90;;;;;;5081402;28;20579;-66
2021/07/03 11:37:37;;;;;;;10.55;7.00;;;21.50;99.90;;;;;;5088175;28;20114;-68
2021/07/03 11:40:11;;;;;;;12.57;7.72;;;21.60;99.90;;;;;;5089018;28;20028;-69
2021/07/03 11:42:46;;;;;;;13.02;7.78;;;21.60;99.90;;;;;;5083186;28;20032;-70
2021/07/03 11:45:14;;;;;;;10.75;7.25;;;21.40;99.90;;;;;;5084573;28;20388;-69
2021/07/03 11:47:46;;;;;;;13.48;7.15;;;21.30;99.90;;;;;;5086750;28;20032;-69
2021/07/03 11:50:26;;;;;;;11.98;7.30;;;21.30;99.90;;;;;;5084211;28;20063;-78
2021/07/03 11:52:54;;;;;;;12.07;7.22;;;21.50;99.90;;;;;;5088467;28;20043;-80
2021/07/03 11:55:28;;;;;;;10.73;7.10;;;21.50;99.90;;;;;;5086884;28;20470;-77
2021/07/03 11:57:54;;;;;;;19.10;8.20;;;21.60;99.90;;;;;;5085046;28;20038;-81
2021/07/03 12:00:25;;;;;;;15.88;8.40;;;21.60;99.90;;;;;;5083199;28;20497;-78
2021/07/03 12:02:52;;;;;;;14.38;7.28;;;21.60;99.90;;;;;;5084775;28;20031;-79
2021/07/03 12:05:24;;;;;;;12.15;6.22;;;21.50;99.90;;;;;;5083948;28;20032;-78
2021/07/03 12:08:04;;;;;;;13.55;6.80;;;21.50;99.90;;;;;;5084099;28;20032;-79
2021/07/03 12:10:38;;;;;;;13.40;7.18;;;21.70;99.90;;;;;;5087234;28;20503;-79
2021/07/03 12:13:07;;;;;;;13.00;6.03;;;21.90;99.90;;;;;;5085203;28;20799;-73
2021/07/03 12:15:34;;;;;;;12.80;6.65;;;22.20;99.90;;;;;;5084737;28;20024;-72
2021/07/03 12:18:00;;;;;;;13.52;7.10;;;22.30;99.90;;;;;;5082141;28;20032;-76
2021/07/03 12:20:27;;;;;;;12.80;6.85;;;22.20;99.90;;;;;;5068666;28;20459;-75
2021/07/03 12:23:05;;;;;;;11.75;6.28;;;22.40;99.90;;;;;;5082102;28;20428;-74
2021/07/03 12:25:33;;;;;;;9.60;6.72;;;22.40;99.90;;;;;;5085115;28;20475;-77
2021/07/03 12:28:04;;;;;;;11.02;5.68;;;22.60;99.90;;;;;;5048291;28;20131;-74
2021/07/03 12:30:32;;;;;;;12.50;6.40;;;22.70;99.90;;;;;;5084236;28;20030;-79
2021/07/03 12:33:02;;;;;;;14.25;6.53;;;22.80;99.90;;;;;;5063827;28;20063;-81
2021/07/03 12:35:52;;;;;;;10.50;5.70;;;22.90;99.90;;;;;;5048343;28;20141;-76
2021/07/03 12:38:27;;;;;;;11.68;5.55;;;23.20;99.90;;;;;;5084690;28;20020;-78
2021/07/03 12:40:54;;;;;;;10.35;6.05;;;23.60;99.90;;;;;;5082155;28;20040;-77
2021/07/03 12:43:32;;;;;;;12.02;6.28;;;23.70;99.90;;;;;;5085077;28;20078;-75
2021/07/03 12:46:03;;;;;;;12.27;5.20;;;23.80;99.90;;;;;;5083893;28;20020;-75